createdAt,value
2018-06-04T01:00:17.724Z,8.37
2018-06-04T01:02:46.390Z,6.77
2018-06-04T01:05:14.772Z,13.13
2018-06-04T01:07:43.150Z,6.30
2018-06-04T01:10:11.636Z,7.00
2018-06-04T01:12:40.383Z,10.43
2018-06-04T01:15:08.940Z,5.73
2018-06-04T01:17:37.753Z,7.17
2018-06-04T01:20:06.142Z,9.30
2018-06-04T01:22:34.929Z,6.03
2018-06-04T01:25:03.356Z,6.60
2018-06-04T01:27:32.117Z,7.83
2018-06-04T01:30:00.493Z,11.10
2018-06-04T01:32:29.384Z,7.73
2018-06-04T01:34:57.749Z,6.10
2018-06-04T01:37:26.612Z,12.00
2018-06-04T01:39:55.004Z,7.57
2018-06-04T01:42:23.908Z,6.43
2018-06-04T01:44:52.315Z,13.30
2018-06-04T01:47:20.853Z,9.33
2018-06-04T01:49:49.835Z,11.87
2018-06-04T01:52:18.466Z,7.20
2018-06-04T01:54:46.848Z,7.47
2018-06-04T01:57:15.605Z,10.03
2018-06-04T01:59:44.140Z,7.00
2018-06-04T02:02:12.536Z,11.23
2018-06-04T02:04:41.659Z,7.23
2018-06-04T02:07:10.025Z,9.37
2018-06-04T02:09:38.206Z,6.90
2018-06-04T02:12:07.070Z,10.43
2018-06-04T02:14:35.606Z,6.77
2018-06-04T02:17:04.186Z,11.77
2018-06-04T02:19:33.299Z,6.23
2018-06-04T02:22:02.236Z,12.63
2018-06-04T02:24:30.861Z,7.37
2018-06-04T02:26:59.263Z,11.97
2018-06-04T02:29:28.108Z,7.73
2018-06-04T02:31:56.500Z,7.57
2018-06-04T02:34:25.828Z,12.17
2018-06-04T02:36:54.529Z,10.20
2018-06-04T02:39:23.045Z,13.33
2018-06-04T02:41:52.090Z,9.20
2018-06-04T02:44:20.787Z,10.07
2018-06-04T02:46:49.245Z,12.60
2018-06-04T02:49:17.942Z,7.70
2018-06-04T02:51:46.387Z,10.83
2018-06-04T02:54:15.487Z,8.00
2018-06-04T02:56:43.882Z,7.87
2018-06-04T02:59:12.628Z,11.87
2018-06-04T03:01:41.150Z,7.90
2018-06-04T03:04:10.213Z,11.60
2018-06-04T03:06:38.567Z,7.80
2018-06-04T03:09:08.776Z,8.17
2018-06-04T03:11:37.561Z,10.27
2018-06-04T03:14:06.528Z,14.03
2018-06-04T03:16:35.253Z,7.87
2018-06-04T03:19:03.797Z,8.17
2018-06-04T03:21:32.278Z,12.00
2018-06-04T03:24:00.680Z,9.20
2018-06-04T03:26:29.363Z,12.93
2018-06-04T03:28:57.857Z,10.33
2018-06-04T03:31:26.545Z,14.13
2018-06-04T03:33:54.975Z,8.60
2018-06-04T03:36:23.750Z,14.43
2018-06-04T03:38:52.746Z,8.93
2018-06-04T03:41:21.143Z,9.10
2018-06-04T03:43:49.697Z,10.50
2018-06-04T03:46:18.133Z,11.30
2018-06-04T03:48:46.830Z,8.90
2018-06-04T03:51:15.967Z,16.87
2018-06-04T03:53:44.524Z,9.90
2018-06-04T03:56:12.754Z,13.03
2018-06-04T03:58:41.474Z,10.27
2018-06-04T04:01:10.184Z,10.70
2018-06-04T04:03:38.606Z,11.37
2018-06-04T04:06:07.041Z,19.97
2018-06-04T04:08:35.720Z,13.07
2018-06-04T04:11:04.545Z,14.93
2018-06-04T04:13:32.953Z,13.50
2018-06-04T04:16:01.680Z,10.63
2018-06-04T04:18:30.369Z,12.97
2018-06-04T04:20:58.774Z,9.10
2018-06-04T04:23:27.346Z,12.53
2018-06-04T04:25:56.025Z,16.10
2018-06-04T04:28:24.437Z,10.40
2018-06-04T04:30:53.624Z,10.73
2018-06-04T04:33:22.161Z,15.83
2018-06-04T04:35:50.724Z,13.27
2018-06-04T04:38:19.637Z,18.17
2018-06-04T04:40:48.430Z,12.00
2018-06-04T04:43:17.347Z,15.83
2018-06-04T04:45:46.425Z,17.57
2018-06-04T04:48:14.795Z,13.43
2018-06-04T04:50:43.274Z,17.60
2018-06-04T04:53:11.901Z,13.40
2018-06-04T04:55:41.104Z,21.53
2018-06-04T04:58:09.530Z,13.17
2018-06-04T05:00:38.744Z,14.13
2018-06-04T05:03:07.354Z,14.17
2018-06-04T05:05:36.376Z,16.40
2018-06-04T05:08:04.986Z,15.13
2018-06-04T05:10:33.729Z,13.20
2018-06-04T05:13:03.424Z,11.87
2018-06-04T05:15:32.045Z,14.33
2018-06-04T05:18:00.622Z,18.40
2018-06-04T05:20:30.418Z,13.20
2018-06-04T05:22:59.022Z,14.00
2018-06-04T05:25:27.373Z,13.07
2018-06-04T05:27:56.644Z,12.73
2018-06-04T05:30:25.284Z,13.00
2018-06-04T05:32:53.809Z,12.23
2018-06-04T05:35:22.485Z,13.67
2018-06-04T05:37:50.708Z,16.47
2018-06-04T05:40:19.725Z,14.53
2018-06-04T05:42:48.203Z,12.20
2018-06-04T05:45:16.875Z,13.23
2018-06-04T05:47:45.333Z,12.17
2018-06-04T05:50:13.784Z,13.50
2018-06-04T05:52:42.736Z,13.13
2018-06-04T05:55:11.234Z,10.07
2018-06-04T05:57:39.704Z,10.63
2018-06-04T06:00:08.418Z,10.17
2018-06-04T06:02:36.798Z,12.37
2018-06-04T06:05:05.402Z,11.93
2018-06-04T06:07:34.081Z,9.90
2018-06-04T06:10:03.291Z,9.77
2018-06-04T06:12:31.662Z,9.17
2018-06-04T06:15:00.277Z,11.07
2018-06-04T06:17:28.652Z,9.77
2018-06-04T06:19:57.292Z,10.30
2018-06-04T06:22:25.660Z,9.57
2018-06-04T06:24:54.064Z,10.80
2018-06-04T06:27:22.541Z,10.63
2018-06-04T06:29:51.689Z,12.13
2018-06-04T06:32:20.068Z,9.07
2018-06-04T06:34:48.444Z,10.53
2018-06-04T06:37:17.065Z,9.63
2018-06-04T06:39:45.518Z,9.90
2018-06-04T06:42:14.270Z,9.47
2018-06-04T06:44:43.359Z,9.60
2018-06-04T06:47:12.010Z,11.17
2018-06-04T06:49:40.676Z,10.23
2018-06-04T06:52:09.044Z,8.97
2018-06-04T06:54:37.424Z,11.28
2018-06-04T06:57:05.806Z,10.05
2018-06-04T06:59:34.217Z,10.28
2018-06-04T07:02:02.917Z,10.15
2018-06-04T07:04:31.309Z,10.70
2018-06-04T07:06:59.835Z,9.30
2018-06-04T07:09:28.299Z,9.77
2018-06-04T07:11:57.050Z,11.63
2018-06-04T07:14:25.826Z,9.63
2018-06-04T07:16:54.185Z,10.17
2018-06-04T07:19:22.934Z,8.17
2018-06-04T07:21:51.784Z,6.60
2018-06-04T07:24:20.159Z,8.65
2018-06-04T07:26:48.648Z,8.73
2018-06-04T07:29:17.140Z,7.28
2018-06-04T07:31:45.534Z,7.87
2018-06-04T07:34:14.217Z,9.40
2018-06-04T07:36:42.965Z,7.70
2018-06-04T07:39:11.497Z,8.18
2018-06-04T07:41:40.652Z,8.90
2018-06-04T07:46:57.477Z,6.65
2018-06-04T07:49:27.136Z,7.03
2018-06-04T07:51:58.631Z,6.83
2018-06-04T07:55:04.587Z,6.47
2018-06-04T07:57:33.168Z,6.33
2018-06-04T08:00:02.395Z,5.78
2018-06-04T08:02:31.040Z,6.70
2018-06-04T08:04:59.301Z,6.45
2018-06-04T08:07:28.061Z,6.60
2018-06-04T08:09:57.567Z,6.10
2018-06-04T08:12:27.279Z,8.05
2018-06-04T08:14:56.575Z,7.70
2018-06-04T08:17:25.336Z,6.08
2018-06-04T08:19:53.795Z,8.78
2018-06-04T08:22:22.203Z,6.58
2018-06-04T08:24:50.897Z,5.60
2018-06-04T08:27:19.053Z,5.85
2018-06-04T08:29:47.484Z,7.33
2018-06-04T08:32:16.764Z,7.50
2018-06-04T08:34:45.445Z,5.90
2018-06-04T08:37:14.128Z,5.35
2018-06-04T08:39:43.123Z,7.33
2018-06-04T08:42:11.519Z,6.97
2018-06-04T08:44:40.439Z,5.40
2018-06-04T08:47:09.087Z,5.10
2018-06-04T08:49:38.055Z,6.43
2018-06-04T08:52:06.637Z,7.70
2018-06-04T08:54:35.156Z,6.40
2018-06-04T08:57:04.133Z,5.17
2018-06-04T08:59:32.582Z,5.72
2018-06-04T09:02:01.035Z,4.80
2018-06-04T09:04:30.004Z,5.80
2018-06-04T09:06:58.397Z,6.45
2018-06-04T09:09:26.833Z,5.40
2018-06-04T09:11:55.260Z,6.03
2018-06-04T09:14:24.746Z,5.90
2018-06-04T09:16:53.354Z,6.25
2018-06-04T09:19:21.905Z,6.28
2018-06-04T09:21:50.568Z,5.67
2018-06-04T09:24:19.054Z,5.70
2018-06-04T09:26:47.213Z,5.53
2018-06-04T09:29:15.755Z,6.83
2018-06-04T09:31:44.618Z,5.73
2018-06-04T09:34:13.595Z,5.47
2018-06-04T09:36:42.473Z,5.77
2018-06-04T09:39:11.224Z,6.90
2018-06-04T09:41:39.750Z,5.40
2018-06-04T09:44:08.326Z,6.53
2018-06-04T09:46:36.745Z,6.33
2018-06-04T09:49:05.794Z,5.70
2018-06-04T09:51:34.361Z,6.00
2018-06-04T09:54:02.813Z,6.22
2018-06-04T09:56:31.211Z,6.75
2018-06-04T09:58:59.704Z,5.78
2018-06-04T10:01:28.248Z,6.00
2018-06-04T10:03:57.181Z,5.33
2018-06-04T10:06:26.223Z,8.00
2018-06-04T10:08:54.628Z,6.58
2018-06-04T10:11:23.720Z,7.37
2018-06-04T10:13:52.251Z,4.85
2018-06-04T10:16:20.755Z,5.10
2018-06-04T10:18:49.176Z,5.15
2018-06-04T10:21:17.933Z,4.78
2018-06-04T10:23:46.655Z,7.10
2018-06-04T10:26:15.203Z,6.62
2018-06-04T10:28:44.093Z,5.10
2018-06-04T10:31:12.859Z,6.05
2018-06-04T10:33:41.297Z,4.65
2018-06-04T10:36:09.896Z,5.03
2018-06-04T10:38:38.635Z,5.30
2018-06-04T10:41:07.180Z,6.05
2018-06-04T10:43:35.580Z,5.12
2018-06-04T10:46:05.522Z,4.87
2018-06-04T10:48:34.002Z,4.92
2018-06-04T10:51:02.767Z,4.50
2018-06-04T10:53:31.655Z,4.67
2018-06-04T10:56:00.609Z,5.12
2018-06-04T10:58:30.042Z,5.80
2018-06-04T11:00:58.686Z,5.42
2018-06-04T11:03:27.792Z,4.62
2018-06-04T11:05:56.648Z,3.60
2018-06-04T11:08:25.355Z,4.90
2018-06-04T11:10:54.636Z,5.43
2018-06-04T11:13:23.034Z,7.13
2018-06-04T11:15:51.749Z,4.10
2018-06-04T11:18:20.547Z,5.03
2018-06-04T11:20:49.751Z,5.30
2018-06-04T11:23:18.363Z,4.10
2018-06-04T11:25:46.855Z,6.20
2018-06-04T11:28:15.188Z,7.37
2018-06-04T11:30:43.611Z,4.43
2018-06-04T11:33:12.076Z,4.40
2018-06-04T11:35:40.599Z,5.87
2018-06-04T11:38:09.165Z,4.60
2018-06-04T11:40:37.580Z,6.57
2018-06-04T11:43:06.772Z,7.23
2018-06-04T11:45:35.146Z,4.73
2018-06-04T11:48:04.017Z,6.27
2018-06-04T11:50:33.193Z,4.40
2018-06-04T11:53:01.665Z,5.00
2018-06-04T11:55:30.073Z,4.07
2018-06-04T11:57:58.545Z,4.67
2018-06-04T12:00:27.127Z,6.50
2018-06-04T12:02:56.368Z,6.60
2018-06-04T12:05:24.759Z,4.47
2018-06-04T12:07:53.572Z,8.67
2018-06-04T12:10:21.988Z,8.80
2018-06-04T12:12:50.822Z,5.47
2018-06-04T12:15:19.573Z,6.60
2018-06-04T12:17:48.504Z,6.00
2018-06-04T12:20:16.883Z,4.80
2018-06-04T12:22:45.286Z,6.87
2018-06-04T12:25:13.678Z,7.30
2018-06-04T12:27:42.111Z,5.40
2018-06-04T12:30:10.514Z,5.07
2018-06-04T12:32:39.784Z,4.80
2018-06-04T12:35:08.229Z,6.10
2018-06-04T12:37:36.797Z,6.47
2018-06-04T12:40:05.448Z,6.53
2018-06-04T12:42:34.003Z,6.53
2018-06-04T12:45:03.008Z,5.30
2018-06-04T12:47:31.361Z,11.63
2018-06-04T12:49:59.762Z,6.63
2018-06-04T12:52:28.616Z,7.63
2018-06-04T12:54:57.438Z,4.60
2018-06-04T12:57:25.956Z,4.30
2018-06-04T12:59:54.543Z,4.23
2018-06-04T13:02:23.277Z,6.50
2018-06-04T13:04:52.340Z,4.50
2018-06-04T13:07:20.931Z,4.60
2018-06-04T13:09:49.322Z,5.13
2018-06-04T13:12:18.163Z,5.67
2018-06-04T13:14:46.994Z,6.30
2018-06-04T13:17:15.792Z,4.80
2018-06-04T13:19:44.491Z,8.57
2018-06-04T13:22:13.479Z,5.63
2018-06-04T13:24:42.113Z,10.50
2018-06-04T13:27:10.489Z,6.27
2018-06-04T13:29:39.051Z,6.07
2018-06-04T13:32:07.654Z,6.40
2018-06-04T13:34:36.320Z,10.23
2018-06-04T13:37:04.994Z,6.23
2018-06-04T13:39:34.648Z,4.90
2018-06-04T13:42:03.112Z,5.37
2018-06-04T13:44:32.061Z,5.40
2018-06-04T13:47:00.468Z,6.87
2018-06-04T13:49:29.823Z,7.80
2018-06-04T13:51:58.315Z,7.20
2018-06-04T13:54:26.755Z,7.63
2018-06-04T13:56:55.820Z,6.33
2018-06-04T13:59:24.488Z,5.90
2018-06-04T14:01:52.905Z,6.87
2018-06-04T14:04:22.902Z,7.40
2018-06-04T14:06:51.418Z,5.80
2018-06-04T14:09:20.194Z,7.37
2018-06-04T14:11:50.325Z,7.30
2018-06-04T14:14:18.860Z,7.90
2018-06-04T14:16:47.404Z,6.13
2018-06-04T14:19:15.825Z,6.20
2018-06-04T14:21:44.307Z,6.17
2018-06-04T14:24:12.991Z,5.17
2018-06-04T14:26:41.688Z,5.97
2018-06-04T14:29:10.352Z,5.07
2018-06-04T14:31:38.799Z,4.33
2018-06-04T14:34:07.247Z,5.20
2018-06-04T14:36:35.772Z,5.47
2018-06-04T14:39:07.092Z,4.37
2018-06-04T14:41:36.061Z,5.87
2018-06-04T14:44:05.378Z,4.90
2018-06-04T14:46:34.389Z,4.87
2018-06-04T14:49:03.385Z,4.83
2018-06-04T14:51:33.337Z,3.97
2018-06-04T14:54:02.158Z,4.47
2018-06-04T14:56:30.637Z,7.83
2018-06-04T14:58:59.469Z,7.13
2018-06-04T15:01:28.234Z,5.23
2018-06-04T15:03:56.698Z,6.70
2018-06-04T15:06:25.394Z,4.17
2018-06-04T15:08:54.117Z,5.03
2018-06-04T15:11:23.169Z,6.63
2018-06-04T15:13:51.681Z,4.40
2018-06-04T15:16:20.495Z,6.17
2018-06-04T15:18:48.894Z,4.27
2018-06-04T15:21:17.278Z,5.97
2018-06-04T15:23:45.696Z,5.03
2018-06-04T15:26:14.380Z,6.40
2018-06-04T15:28:43.464Z,5.27
2018-06-04T15:31:12.653Z,4.83
2018-06-04T15:33:41.118Z,3.77
2018-06-04T15:36:09.495Z,4.27
2018-06-04T15:38:37.987Z,4.13
2018-06-04T15:41:06.426Z,4.20
2018-06-04T15:43:34.839Z,5.30
2018-06-04T15:46:03.535Z,4.70
2018-06-04T15:48:32.401Z,5.10
2018-06-04T15:51:00.965Z,4.07
2018-06-04T15:53:30.438Z,4.20
2018-06-04T15:55:58.818Z,5.07
2018-06-04T15:58:27.207Z,4.70
2018-06-04T16:00:55.776Z,5.00
2018-06-04T16:03:24.187Z,4.23
2018-06-04T16:05:52.781Z,5.73
2018-06-04T16:08:21.754Z,6.17
2018-06-04T16:10:50.356Z,4.60
2018-06-04T16:13:19.176Z,4.23
2018-06-04T16:15:47.969Z,3.97
2018-06-04T16:18:16.468Z,6.63
2018-06-04T16:20:45.158Z,4.33
2018-06-04T16:26:33.999Z,5.33
2018-06-04T16:29:02.552Z,11.80
2018-06-04T16:31:31.275Z,5.60
2018-06-04T16:34:00.098Z,5.63
2018-06-04T16:36:28.620Z,5.43
2018-06-04T16:38:57.040Z,4.87
2018-06-04T16:41:25.726Z,6.03
2018-06-04T16:43:55.077Z,7.50
2018-06-04T16:46:23.674Z,6.90
2018-06-04T16:48:53.003Z,6.43
2018-06-04T16:51:21.418Z,5.77
2018-06-04T16:53:49.982Z,6.67
2018-06-04T16:56:18.610Z,5.20
2018-06-04T16:58:47.111Z,6.03
2018-06-04T17:01:15.711Z,5.10
2018-06-04T17:03:44.129Z,7.40
2018-06-04T17:06:12.518Z,7.17
2018-06-04T17:08:41.873Z,5.33
2018-06-04T17:11:11.352Z,7.40
2018-06-04T17:13:40.212Z,6.87
2018-06-04T17:25:13.175Z,10.13
2018-06-04T17:33:03.331Z,6.20
2018-06-04T17:35:31.735Z,7.77
2018-06-04T17:38:00.168Z,8.17
2018-06-04T17:40:28.903Z,7.57
2018-06-04T17:42:57.324Z,7.57
2018-06-04T17:45:26.009Z,8.93
2018-06-04T17:47:54.437Z,6.93
2018-06-04T17:50:23.144Z,8.37
2018-06-04T17:52:52.597Z,7.07
2018-06-04T17:55:21.080Z,9.43
2018-06-04T17:57:50.202Z,7.50
2018-06-04T18:00:19.031Z,6.87
2018-06-04T18:02:47.582Z,10.10
2018-06-04T18:05:16.006Z,8.00
2018-06-04T18:07:44.554Z,7.33
2018-06-04T18:10:13.265Z,7.10
2018-06-04T18:12:42.093Z,8.47
2018-06-04T18:15:11.085Z,6.70
2018-06-04T18:17:39.470Z,8.10
2018-06-04T18:20:07.946Z,8.17
2018-06-04T18:22:36.784Z,6.47
2018-06-04T18:25:06.449Z,7.57
2018-06-04T18:27:36.301Z,8.93
2018-06-04T18:30:04.766Z,8.57
2018-06-04T18:32:33.498Z,8.03
2018-06-04T18:35:01.929Z,6.90
2018-06-04T18:37:30.320Z,6.10
2018-06-04T18:39:59.503Z,10.20
2018-06-04T18:42:28.241Z,6.97
2018-06-04T18:44:56.956Z,7.90
2018-06-04T18:47:25.603Z,7.10
2018-06-04T18:49:54.207Z,9.50
2018-06-04T18:52:22.729Z,8.13
2018-06-04T18:54:51.612Z,9.37
2018-06-04T18:57:20.079Z,8.07
2018-06-04T18:59:49.416Z,10.73
2018-06-04T19:02:17.912Z,9.97
2018-06-04T19:04:46.689Z,8.43
2018-06-04T19:07:15.076Z,8.57
2018-06-04T19:09:43.744Z,6.47
2018-06-04T19:12:13.032Z,7.97
2018-06-04T19:14:41.453Z,9.97
2018-06-04T19:17:09.996Z,9.23
2018-06-04T19:19:38.874Z,6.77
2018-06-04T19:22:07.736Z,8.23
2018-06-04T19:24:36.358Z,9.03
2018-06-04T19:27:05.078Z,9.93
2018-06-04T19:29:33.484Z,9.13
2018-06-04T19:32:01.904Z,7.63
2018-06-04T19:34:30.386Z,7.67
2018-06-04T19:36:58.933Z,7.37
2018-06-04T19:39:27.304Z,7.73
2018-06-04T19:41:56.030Z,7.63
2018-06-04T19:44:25.473Z,7.87
2018-06-04T19:46:53.938Z,6.97
2018-06-04T19:49:22.690Z,9.63
2018-06-04T19:51:51.108Z,6.13
2018-06-04T19:54:19.900Z,6.90
2018-06-04T19:56:48.742Z,10.07
2018-06-04T19:59:17.178Z,12.40
2018-06-04T20:01:45.750Z,9.53
2018-06-04T20:04:14.820Z,8.00
2018-06-04T20:06:43.352Z,9.07
2018-06-04T20:09:12.137Z,9.90
2018-06-04T20:11:40.636Z,6.83
2018-06-04T20:14:09.294Z,7.60
2018-06-04T20:16:38.257Z,9.90
2018-06-04T20:19:06.893Z,10.03
2018-06-04T20:21:35.309Z,9.90
2018-06-04T20:24:03.975Z,8.17
2018-06-04T20:26:32.673Z,11.90
2018-06-04T20:29:01.774Z,9.03
2018-06-04T20:31:31.260Z,7.37
2018-06-04T20:34:02.991Z,6.30
2018-06-04T20:36:31.643Z,6.90
2018-06-04T20:39:00.144Z,8.83
2018-06-04T20:41:28.864Z,7.87
2018-06-04T20:43:57.778Z,9.13
2018-06-04T20:46:26.179Z,7.20
2018-06-04T20:48:54.616Z,8.13
2018-06-04T20:51:23.425Z,9.23
2018-06-04T20:53:52.516Z,7.93
2018-06-04T20:56:20.990Z,8.90
2018-06-04T20:58:49.898Z,8.43
2018-06-04T21:01:18.690Z,7.43
2018-06-04T21:03:47.226Z,10.87
2018-06-04T21:06:15.625Z,7.60
2018-06-04T21:08:44.004Z,6.57
2018-06-04T21:11:12.648Z,6.70
2018-06-04T21:13:42.488Z,6.57
2018-06-04T21:16:11.482Z,10.57
2018-06-04T21:18:40.366Z,9.07
2018-06-04T21:21:08.922Z,9.27
2018-06-04T21:23:37.539Z,6.83
2018-06-04T21:26:06.339Z,15.93
2018-06-04T21:28:35.056Z,7.70
2018-06-04T21:31:03.427Z,7.33
2018-06-04T21:33:32.047Z,8.00
2018-06-04T21:36:00.592Z,7.07
2018-06-04T21:38:29.204Z,8.87
2018-06-04T21:40:58.393Z,6.50
2018-06-04T21:43:27.058Z,7.03
2018-06-04T21:45:55.447Z,7.90
2018-06-04T21:48:24.633Z,8.37
2018-06-04T21:50:53.111Z,6.83
2018-06-04T21:53:22.096Z,7.87
2018-06-04T21:55:50.622Z,6.93
